sensor_id;sensor_type;location;lat;lon;timestamp;P1;durP1;ratioP1;P2;durP2;ratioP2
50549;SDS011;36505;52.512;13.460;2023-11-21T00:02:04;8.75;;;4.38;;
50549;SDS011;36505;52.512;13.460;2023-11-21T00:04:29;8.73;;;5.50;;
50549;SDS011;36505;52.512;13.460;2023-11-21T00:06:55;10.05;;;5.15;;
50549;SDS011;36505;52.512;13.460;2023-11-21T00:09:20;10.23;;;5.93;;
50549;SDS011;36505;52.512;13.460;2023-11-21T00:11:46;10.25;;;6.25;;
50549;SDS011;36505;52.512;13.460;2023-11-21T00:14:12;10.05;;;5.72;;
50549;SDS011;36505;52.512;13.460;2023-11-21T00:16:37;9.45;;;5.72;;
50549;SDS011;36505;52.512;13.460;2023-11-21T00:19:02;14.68;;;6.93;;
50549;SDS011;36505;52.512;13.460;2023-11-21T00:21:28;11.98;;;7.55;;
50549;SDS011;36505;52.512;13.460;2023-11-21T00:23:53;13.15;;;7.32;;
50549;SDS011;36505;52.512;13.460;2023-11-21T00:26:19;13.57;;;7.35;;
50549;SDS011;36505;52.512;13.460;2023-11-21T00:28:44;13.70;;;7.75;;
50549;SDS011;36505;52.512;13.460;2023-11-21T00:31:10;13.00;;;8.25;;
50549;SDS011;36505;52.512;13.460;2023-11-21T00:33:36;15.20;;;8.57;;
50549;SDS011;36505;52.512;13.460;2023-11-21T00:36:01;20.67;;;10.00;;
50549;SDS011;36505;52.512;13.460;2023-11-21T00:38:27;17.20;;;8.68;;
50549;SDS011;36505;52.512;13.460;2023-11-21T00:40:52;17.98;;;8.80;;
50549;SDS011;36505;52.512;13.460;2023-11-21T00:43:21;17.90;;;9.90;;
50549;SDS011;36505;52.512;13.460;2023-11-21T00:45:49;24.75;;;10.38;;
50549;SDS011;36505;52.512;13.460;2023-11-21T00:48:15;24.35;;;11.60;;
50549;SDS011;36505;52.512;13.460;2023-11-21T00:50:40;26.92;;;11.77;;
50549;SDS011;36505;52.512;13.460;2023-11-21T00:53:06;27.50;;;11.93;;
50549;SDS011;36505;52.512;13.460;2023-11-21T00:55:32;30.15;;;10.75;;
50549;SDS011;36505;52.512;13.460;2023-11-21T00:57:58;27.05;;;11.95;;
50549;SDS011;36505;52.512;13.460;2023-11-21T01:00:24;29.83;;;12.57;;
50549;SDS011;36505;52.512;13.460;2023-11-21T01:02:50;30.52;;;12.43;;
50549;SDS011;36505;52.512;13.460;2023-11-21T01:05:15;24.20;;;11.68;;
50549;SDS011;36505;52.512;13.460;2023-11-21T01:07:41;30.42;;;12.68;;
50549;SDS011;36505;52.512;13.460;2023-11-21T01:10:06;22.85;;;11.38;;
50549;SDS011;36505;52.512;13.460;2023-11-21T01:12:36;22.92;;;12.20;;
50549;SDS011;36505;52.512;13.460;2023-11-21T01:15:03;32.10;;;13.52;;
50549;SDS011;36505;52.512;13.460;2023-11-21T01:17:32;30.17;;;13.98;;
50549;SDS011;36505;52.512;13.460;2023-11-21T01:19:59;25.35;;;12.63;;
50549;SDS011;36505;52.512;13.460;2023-11-21T01:22:25;28.05;;;12.85;;
50549;SDS011;36505;52.512;13.460;2023-11-21T01:24:51;27.45;;;13.82;;
50549;SDS011;36505;52.512;13.460;2023-11-21T01:27:17;28.92;;;13.57;;
50549;SDS011;36505;52.512;13.460;2023-11-21T01:29:43;34.08;;;15.43;;
50549;SDS011;36505;52.512;13.460;2023-11-21T01:32:09;33.15;;;14.65;;
50549;SDS011;36505;52.512;13.460;2023-11-21T01:34:34;31.88;;;15.73;;
50549;SDS011;36505;52.512;13.460;2023-11-21T01:37:00;47.53;;;19.17;;
50549;SDS011;36505;52.512;13.460;2023-11-21T01:39:27;42.47;;;17.60;;
50549;SDS011;36505;52.512;13.460;2023-11-21T01:41:53;44.65;;;18.20;;
50549;SDS011;36505;52.512;13.460;2023-11-21T01:44:18;44.53;;;18.17;;
50549;SDS011;36505;52.512;13.460;2023-11-21T01:46:44;52.33;;;19.30;;
50549;SDS011;36505;52.512;13.460;2023-11-21T01:49:11;53.78;;;18.95;;
50549;SDS011;36505;52.512;13.460;2023-11-21T01:51:38;49.45;;;18.58;;
50549;SDS011;36505;52.512;13.460;2023-11-21T01:54:05;46.13;;;17.65;;
50549;SDS011;36505;52.512;13.460;2023-11-21T01:56:32;45.65;;;16.52;;
50549;SDS011;36505;52.512;13.460;2023-11-21T01:58:57;42.75;;;17.30;;
50549;SDS011;36505;52.512;13.460;2023-11-21T02:01:23;40.58;;;15.18;;
50549;SDS011;36505;52.512;13.460;2023-11-21T02:03:48;37.85;;;14.52;;
50549;SDS011;36505;52.512;13.460;2023-11-21T02:06:14;38.65;;;16.25;;
50549;SDS011;36505;52.512;13.460;2023-11-21T02:08:39;40.92;;;15.75;;
50549;SDS011;36505;52.512;13.460;2023-11-21T02:11:07;39.65;;;14.63;;
50549;SDS011;36505;52.512;13.460;2023-11-21T02:13:34;34.22;;;14.82;;
50549;SDS011;36505;52.512;13.460;2023-11-21T02:15:59;40.60;;;14.20;;
50549;SDS011;36505;52.512;13.460;2023-11-21T02:18:26;30.13;;;12.15;;
50549;SDS011;36505;52.512;13.460;2023-11-21T02:20:54;33.78;;;12.45;;
50549;SDS011;36505;52.512;13.460;2023-11-21T02:23:20;27.65;;;11.30;;
50549;SDS011;36505;52.512;13.460;2023-11-21T02:25:46;31.60;;;11.93;;
50549;SDS011;36505;52.512;13.460;2023-11-21T02:28:12;26.80;;;11.15;;
50549;SDS011;36505;52.512;13.460;2023-11-21T02:30:40;28.38;;;10.52;;
50549;SDS011;36505;52.512;13.460;2023-11-21T02:33:05;28.33;;;11.32;;
50549;SDS011;36505;52.512;13.460;2023-11-21T02:35:32;31.50;;;11.68;;
50549;SDS011;36505;52.512;13.460;2023-11-21T02:37:57;26.85;;;11.25;;
50549;SDS011;36505;52.512;13.460;2023-11-21T02:40:23;25.88;;;10.38;;
50549;SDS011;36505;52.512;13.460;2023-11-21T02:42:50;26.73;;;10.55;;
50549;SDS011;36505;52.512;13.460;2023-11-21T02:45:19;26.20;;;11.13;;
50549;SDS011;36505;52.512;13.460;2023-11-21T02:47:46;23.52;;;9.90;;
50549;SDS011;36505;52.512;13.460;2023-11-21T02:50:11;25.17;;;10.00;;
50549;SDS011;36505;52.512;13.460;2023-11-21T02:52:37;20.05;;;9.35;;
50549;SDS011;36505;52.512;13.460;2023-11-21T02:55:03;22.60;;;8.63;;
50549;SDS011;36505;52.512;13.460;2023-11-21T02:57:29;20.50;;;8.82;;
50549;SDS011;36505;52.512;13.460;2023-11-21T02:59:54;17.52;;;8.07;;
50549;SDS011;36505;52.512;13.460;2023-11-21T03:02:20;17.58;;;7.78;;
50549;SDS011;36505;52.512;13.460;2023-11-21T03:04:47;17.50;;;8.32;;
50549;SDS011;36505;52.512;13.460;2023-11-21T03:07:14;16.17;;;7.53;;
50549;SDS011;36505;52.512;13.460;2023-11-21T03:09:40;14.07;;;7.68;;
50549;SDS011;36505;52.512;13.460;2023-11-21T03:12:05;14.95;;;7.97;;
50549;SDS011;36505;52.512;13.460;2023-11-21T03:14:31;12.18;;;7.25;;
50549;SDS011;36505;52.512;13.460;2023-11-21T03:16:56;16.10;;;8.55;;
50549;SDS011;36505;52.512;13.460;2023-11-21T03:19:22;14.13;;;7.13;;
50549;SDS011;36505;52.512;13.460;2023-11-21T03:21:47;12.32;;;7.55;;
50549;SDS011;36505;52.512;13.460;2023-11-21T03:24:13;12.90;;;6.97;;
50549;SDS011;36505;52.512;13.460;2023-11-21T03:26:38;11.68;;;7.18;;
50549;SDS011;36505;52.512;13.460;2023-11-21T03:29:03;10.98;;;6.28;;
50549;SDS011;36505;52.512;13.460;2023-11-21T03:31:29;13.02;;;7.43;;
50549;SDS011;36505;52.512;13.460;2023-11-21T03:33:55;13.02;;;7.57;;
50549;SDS011;36505;52.512;13.460;2023-11-21T03:36:20;11.73;;;6.70;;
50549;SDS011;36505;52.512;13.460;2023-11-21T03:38:47;14.90;;;7.50;;
50549;SDS011;36505;52.512;13.460;2023-11-21T03:41:13;10.38;;;6.32;;
50549;SDS011;36505;52.512;13.460;2023-11-21T03:43:39;12.35;;;6.07;;
50549;SDS011;36505;52.512;13.460;2023-11-21T03:46:05;11.90;;;6.63;;
50549;SDS011;36505;52.512;13.460;2023-11-21T03:48:30;10.35;;;5.82;;
50549;SDS011;36505;52.512;13.460;2023-11-21T03:50:56;9.68;;;5.75;;
50549;SDS011;36505;52.512;13.460;2023-11-21T03:53:21;9.60;;;6.03;;
50549;SDS011;36505;52.512;13.460;2023-11-21T03:55:47;9.48;;;5.40;;
50549;SDS011;36505;52.512;13.460;2023-11-21T03:58:12;11.20;;;6.30;;
50549;SDS011;36505;52.512;13.460;2023-11-21T04:00:38;10.68;;;6.30;;
50549;SDS011;36505;52.512;13.460;2023-11-21T04:03:03;9.80;;;5.93;;
50549;SDS011;36505;52.512;13.460;2023-11-21T04:05:29;10.35;;;6.10;;
50549;SDS011;36505;52.512;13.460;2023-11-21T04:07:56;9.95;;;6.57;;
50549;SDS011;36505;52.512;13.460;2023-11-21T04:10:21;10.65;;;5.75;;
50549;SDS011;36505;52.512;13.460;2023-11-21T04:12:47;11.93;;;6.50;;
50549;SDS011;36505;52.512;13.460;2023-11-21T04:15:13;9.65;;;5.97;;
50549;SDS011;36505;52.512;13.460;2023-11-21T04:17:39;12.48;;;6.90;;
50549;SDS011;36505;52.512;13.460;2023-11-21T04:20:05;11.55;;;6.65;;
50549;SDS011;36505;52.512;13.460;2023-11-21T04:22:34;11.63;;;6.63;;
50549;SDS011;36505;52.512;13.460;2023-11-21T04:25:01;10.27;;;6.43;;
50549;SDS011;36505;52.512;13.460;2023-11-21T04:27:27;9.90;;;5.70;;
50549;SDS011;36505;52.512;13.460;2023-11-21T04:29:52;14.90;;;6.65;;
50549;SDS011;36505;52.512;13.460;2023-11-21T04:32:18;10.57;;;5.72;;
50549;SDS011;36505;52.512;13.460;2023-11-21T04:34:43;9.15;;;5.32;;
50549;SDS011;36505;52.512;13.460;2023-11-21T04:37:08;11.73;;;5.53;;
50549;SDS011;36505;52.512;13.460;2023-11-21T04:39:35;9.30;;;4.95;;
50549;SDS011;36505;52.512;13.460;2023-11-21T04:42:01;10.73;;;5.10;;
50549;SDS011;36505;52.512;13.460;2023-11-21T04:44:26;8.40;;;4.75;;
50549;SDS011;36505;52.512;13.460;2023-11-21T04:46:51;9.05;;;5.63;;
50549;SDS011;36505;52.512;13.460;2023-11-21T04:49:17;8.32;;;4.78;;
50549;SDS011;36505;52.512;13.460;2023-11-21T04:51:42;8.80;;;4.78;;
50549;SDS011;36505;52.512;13.460;2023-11-21T04:54:07;9.98;;;5.68;;
50549;SDS011;36505;52.512;13.460;2023-11-21T04:56:33;8.52;;;5.18;;
50549;SDS011;36505;52.512;13.460;2023-11-21T04:58:58;8.10;;;5.10;;
50549;SDS011;36505;52.512;13.460;2023-11-21T05:01:23;8.15;;;5.00;;
50549;SDS011;36505;52.512;13.460;2023-11-21T05:03:49;10.18;;;5.60;;
50549;SDS011;36505;52.512;13.460;2023-11-21T05:06:14;12.50;;;5.78;;
50549;SDS011;36505;52.512;13.460;2023-11-21T05:08:40;10.13;;;5.10;;
50549;SDS011;36505;52.512;13.460;2023-11-21T05:11:05;7.78;;;4.47;;
50549;SDS011;36505;52.512;13.460;2023-11-21T05:13:33;8.40;;;4.45;;
50549;SDS011;36505;52.512;13.460;2023-11-21T05:15:59;9.70;;;5.07;;
50549;SDS011;36505;52.512;13.460;2023-11-21T05:18:24;8.30;;;4.82;;
50549;SDS011;36505;52.512;13.460;2023-11-21T05:20:54;6.10;;;4.10;;
50549;SDS011;36505;52.512;13.460;2023-11-21T05:23:20;7.93;;;4.40;;
50549;SDS011;36505;52.512;13.460;2023-11-21T05:25:45;7.53;;;4.68;;
50549;SDS011;36505;52.512;13.460;2023-11-21T05:28:11;9.07;;;4.47;;
50549;SDS011;36505;52.512;13.460;2023-11-21T05:30:37;6.90;;;4.38;;
50549;SDS011;36505;52.512;13.460;2023-11-21T05:33:04;9.05;;;4.82;;
50549;SDS011;36505;52.512;13.460;2023-11-21T05:35:29;7.85;;;5.35;;
50549;SDS011;36505;52.512;13.460;2023-11-21T05:37:55;8.93;;;5.15;;
50549;SDS011;36505;52.512;13.460;2023-11-21T05:40:20;9.45;;;5.18;;
50549;SDS011;36505;52.512;13.460;2023-11-21T05:42:47;8.80;;;4.88;;
50549;SDS011;36505;52.512;13.460;2023-11-21T05:45:13;9.32;;;4.70;;
50549;SDS011;36505;52.512;13.460;2023-11-21T05:47:40;7.90;;;4.68;;
50549;SDS011;36505;52.512;13.460;2023-11-21T05:50:11;8.07;;;4.72;;
50549;SDS011;36505;52.512;13.460;2023-11-21T05:52:39;6.82;;;4.30;;
50549;SDS011;36505;52.512;13.460;2023-11-21T05:55:05;9.05;;;4.28;;
50549;SDS011;36505;52.512;13.460;2023-11-21T05:57:34;8.07;;;4.25;;
50549;SDS011;36505;52.512;13.460;2023-11-21T06:00:13;9.23;;;4.50;;
50549;SDS011;36505;52.512;13.460;2023-11-21T06:02:40;10.02;;;4.30;;
50549;SDS011;36505;52.512;13.460;2023-11-21T06:05:09;8.95;;;4.70;;
50549;SDS011;36505;52.512;13.460;2023-11-21T06:07:35;7.68;;;4.53;;
50549;SDS011;36505;52.512;13.460;2023-11-21T06:10:01;10.13;;;5.40;;
50549;SDS011;36505;52.512;13.460;2023-11-21T06:12:36;9.02;;;4.50;;
50549;SDS011;36505;52.512;13.460;2023-11-21T06:15:03;7.82;;;5.30;;
50549;SDS011;36505;52.512;13.460;2023-11-21T06:17:30;8.40;;;5.32;;
50549;SDS011;36505;52.512;13.460;2023-11-21T06:19:56;10.05;;;5.85;;
50549;SDS011;36505;52.512;13.460;2023-11-21T06:22:22;7.60;;;4.50;;
50549;SDS011;36505;52.512;13.460;2023-11-21T06:24:47;9.98;;;5.13;;
50549;SDS011;36505;52.512;13.460;2023-11-21T06:27:12;10.15;;;5.70;;
50549;SDS011;36505;52.512;13.460;2023-11-21T06:29:38;10.82;;;6.05;;
50549;SDS011;36505;52.512;13.460;2023-11-21T06:32:04;12.32;;;5.53;;
50549;SDS011;36505;52.512;13.460;2023-11-21T06:34:30;9.30;;;5.00;;
50549;SDS011;36505;52.512;13.460;2023-11-21T06:36:55;8.35;;;4.90;;
50549;SDS011;36505;52.512;13.460;2023-11-21T06:39:21;7.95;;;5.32;;
50549;SDS011;36505;52.512;13.460;2023-11-21T06:41:48;10.38;;;5.78;;
50549;SDS011;36505;52.512;13.460;2023-11-21T06:44:14;15.82;;;5.90;;
50549;SDS011;36505;52.512;13.460;2023-11-21T06:46:40;11.38;;;5.60;;
50549;SDS011;36505;52.512;13.460;2023-11-21T06:49:07;9.50;;;5.40;;
50549;SDS011;36505;52.512;13.460;2023-11-21T06:51:33;8.93;;;4.57;;
50549;SDS011;36505;52.512;13.460;2023-11-21T06:53:58;9.38;;;5.18;;
50549;SDS011;36505;52.512;13.460;2023-11-21T06:56:23;10.20;;;5.78;;
50549;SDS011;36505;52.512;13.460;2023-11-21T06:58:49;8.35;;;5.35;;
50549;SDS011;36505;52.512;13.460;2023-11-21T07:01:15;7.43;;;4.55;;
50549;SDS011;36505;52.512;13.460;2023-11-21T07:03:40;9.52;;;5.68;;
50549;SDS011;36505;52.512;13.460;2023-11-21T07:06:06;7.40;;;4.22;;
50549;SDS011;36505;52.512;13.460;2023-11-21T07:08:32;7.95;;;4.50;;
50549;SDS011;36505;52.512;13.460;2023-11-21T07:10:58;8.75;;;4.70;;
50549;SDS011;36505;52.512;13.460;2023-11-21T07:13:23;9.85;;;5.05;;
50549;SDS011;36505;52.512;13.460;2023-11-21T07:15:49;8.35;;;4.82;;
50549;SDS011;36505;52.512;13.460;2023-11-21T07:18:14;7.00;;;4.18;;
50549;SDS011;36505;52.512;13.460;2023-11-21T07:20:39;8.52;;;5.28;;
50549;SDS011;36505;52.512;13.460;2023-11-21T07:23:05;7.93;;;4.97;;
50549;SDS011;36505;52.512;13.460;2023-11-21T07:25:31;6.97;;;4.35;;
50549;SDS011;36505;52.512;13.460;2023-11-21T07:27:58;10.10;;;6.05;;
50549;SDS011;36505;52.512;13.460;2023-11-21T07:30:24;10.55;;;5.63;;
50549;SDS011;36505;52.512;13.460;2023-11-21T07:32:49;7.90;;;4.85;;
50549;SDS011;36505;52.512;13.460;2023-11-21T07:35:14;7.65;;;4.63;;
50549;SDS011;36505;52.512;13.460;2023-11-21T07:37:40;9.27;;;4.07;;
50549;SDS011;36505;52.512;13.460;2023-11-21T07:40:05;11.30;;;4.50;;
50549;SDS011;36505;52.512;13.460;2023-11-21T07:42:33;4.82;;;3.33;;
50549;SDS011;36505;52.512;13.460;2023-11-21T07:44:59;5.90;;;3.70;;
50549;SDS011;36505;52.512;13.460;2023-11-21T07:47:24;5.88;;;3.50;;
50549;SDS011;36505;52.512;13.460;2023-11-21T07:49:52;6.45;;;3.80;;
50549;SDS011;36505;52.512;13.460;2023-11-21T07:52:18;7.38;;;3.60;;
50549;SDS011;36505;52.512;13.460;2023-11-21T07:54:46;8.80;;;4.97;;
50549;SDS011;36505;52.512;13.460;2023-11-21T07:57:11;9.52;;;4.57;;
50549;SDS011;36505;52.512;13.460;2023-11-21T07:59:38;7.25;;;4.45;;
50549;SDS011;36505;52.512;13.460;2023-11-21T08:02:05;7.93;;;3.42;;
50549;SDS011;36505;52.512;13.460;2023-11-21T08:04:31;8.68;;;4.00;;
50549;SDS011;36505;52.512;13.460;2023-11-21T08:06:57;9.38;;;3.95;;
50549;SDS011;36505;52.512;13.460;2023-11-21T08:09:22;8.20;;;4.05;;
50549;SDS011;36505;52.512;13.460;2023-11-21T08:11:48;7.50;;;4.05;;
50549;SDS011;36505;52.512;13.460;2023-11-21T08:14:14;8.68;;;4.20;;
50549;SDS011;36505;52.512;13.460;2023-11-21T08:16:40;8.60;;;4.07;;
50549;SDS011;36505;52.512;13.460;2023-11-21T08:19:05;11.25;;;4.97;;
50549;SDS011;36505;52.512;13.460;2023-11-21T08:21:31;12.95;;;5.15;;
50549;SDS011;36505;52.512;13.460;2023-11-21T08:23:56;12.18;;;4.95;;
50549;SDS011;36505;52.512;13.460;2023-11-21T08:26:22;13.77;;;5.13;;
50549;SDS011;36505;52.512;13.460;2023-11-21T08:28:48;10.57;;;4.90;;
50549;SDS011;36505;52.512;13.460;2023-11-21T08:31:14;10.90;;;4.85;;
50549;SDS011;36505;52.512;13.460;2023-11-21T08:33:40;9.50;;;4.57;;
50549;SDS011;36505;52.512;13.460;2023-11-21T08:36:06;13.75;;;4.93;;
50549;SDS011;36505;52.512;13.460;2023-11-21T08:38:37;13.38;;;5.57;;
50549;SDS011;36505;52.512;13.460;2023-11-21T08:41:04;10.57;;;5.13;;
50549;SDS011;36505;52.512;13.460;2023-11-21T08:43:33;13.13;;;5.10;;
50549;SDS011;36505;52.512;13.460;2023-11-21T08:45:59;16.13;;;5.93;;
50549;SDS011;36505;52.512;13.460;2023-11-21T08:48:25;16.30;;;6.45;;
50549;SDS011;36505;52.512;13.460;2023-11-21T08:50:50;14.38;;;5.88;;
50549;SDS011;36505;52.512;13.460;2023-11-21T08:53:16;15.20;;;6.15;;
50549;SDS011;36505;52.512;13.460;2023-11-21T08:55:43;11.38;;;5.85;;
50549;SDS011;36505;52.512;13.460;2023-11-21T08:58:09;11.65;;;5.13;;
50549;SDS011;36505;52.512;13.460;2023-11-21T09:00:34;15.93;;;6.63;;
50549;SDS011;36505;52.512;13.460;2023-11-21T09:03:01;14.88;;;6.35;;
50549;SDS011;36505;52.512;13.460;2023-11-21T09:05:27;14.00;;;6.47;;
50549;SDS011;36505;52.512;13.460;2023-11-21T09:07:52;15.63;;;5.65;;
50549;SDS011;36505;52.512;13.460;2023-11-21T09:10:17;18.48;;;6.97;;
50549;SDS011;36505;52.512;13.460;2023-11-21T09:12:43;17.75;;;6.22;;
50549;SDS011;36505;52.512;13.460;2023-11-21T09:15:08;17.92;;;6.70;;
50549;SDS011;36505;52.512;13.460;2023-11-21T09:17:36;15.98;;;6.90;;
50549;SDS011;36505;52.512;13.460;2023-11-21T09:20:01;16.52;;;7.65;;
50549;SDS011;36505;52.512;13.460;2023-11-21T09:22:30;21.10;;;7.53;;
50549;SDS011;36505;52.512;13.460;2023-11-21T09:24:56;16.33;;;6.60;;
50549;SDS011;36505;52.512;13.460;2023-11-21T09:27:22;16.08;;;6.75;;
50549;SDS011;36505;52.512;13.460;2023-11-21T09:29:48;15.38;;;5.47;;
50549;SDS011;36505;52.512;13.460;2023-11-21T09:32:14;17.58;;;5.78;;
50549;SDS011;36505;52.512;13.460;2023-11-21T09:34:41;15.93;;;6.60;;
50549;SDS011;36505;52.512;13.460;2023-11-21T09:37:06;15.38;;;4.95;;
50549;SDS011;36505;52.512;13.460;2023-11-21T09:39:33;16.48;;;5.40;;
50549;SDS011;36505;52.512;13.460;2023-11-21T09:42:03;11.98;;;4.97;;
50549;SDS011;36505;52.512;13.460;2023-11-21T09:44:35;8.75;;;4.18;;
50549;SDS011;36505;52.512;13.460;2023-11-21T09:47:10;8.30;;;3.40;;
50549;SDS011;36505;52.512;13.460;2023-11-21T09:49:41;9.68;;;3.33;;
50549;SDS011;36505;52.512;13.460;2023-11-21T09:52:11;6.18;;;3.28;;
50549;SDS011;36505;52.512;13.460;2023-11-21T09:54:47;10.02;;;3.42;;
50549;SDS011;36505;52.512;13.460;2023-11-21T09:57:14;7.75;;;2.88;;
50549;SDS011;36505;52.512;13.460;2023-11-21T09:59:40;6.45;;;2.97;;
50549;SDS011;36505;52.512;13.460;2023-11-21T10:02:06;7.50;;;2.85;;
50549;SDS011;36505;52.512;13.460;2023-11-21T10:04:35;4.97;;;2.47;;
50549;SDS011;36505;52.512;13.460;2023-11-21T10:07:01;9.73;;;3.53;;
50549;SDS011;36505;52.512;13.460;2023-11-21T10:09:28;6.07;;;2.13;;
50549;SDS011;36505;52.512;13.460;2023-11-21T10:11:54;5.20;;;2.30;;
50549;SDS011;36505;52.512;13.460;2023-11-21T10:14:21;2.42;;;1.65;;
50549;SDS011;36505;52.512;13.460;2023-11-21T10:16:51;4.47;;;2.03;;
50549;SDS011;36505;52.512;13.460;2023-11-21T10:19:18;5.03;;;2.10;;
50549;SDS011;36505;52.512;13.460;2023-11-21T10:21:46;6.35;;;2.45;;
50549;SDS011;36505;52.512;13.460;2023-11-21T10:24:11;4.00;;;2.35;;
50549;SDS011;36505;52.512;13.460;2023-11-21T10:26:37;5.70;;;2.53;;
50549;SDS011;36505;52.512;13.460;2023-11-21T10:29:03;3.17;;;1.83;;
50549;SDS011;36505;52.512;13.460;2023-11-21T10:31:32;4.20;;;2.17;;
50549;SDS011;36505;52.512;13.460;2023-11-21T10:34:13;4.15;;;2.08;;
50549;SDS011;36505;52.512;13.460;2023-11-21T10:36:40;5.25;;;2.10;;
50549;SDS011;36505;52.512;13.460;2023-11-21T10:39:05;5.65;;;2.40;;
50549;SDS011;36505;52.512;13.460;2023-11-21T10:41:31;3.25;;;1.88;;
50549;SDS011;36505;52.512;13.460;2023-11-21T10:43:57;3.63;;;1.92;;
50549;SDS011;36505;52.512;13.460;2023-11-21T10:46:22;3.78;;;2.25;;
50549;SDS011;36505;52.512;13.460;2023-11-21T10:48:53;3.67;;;2.00;;
50549;SDS011;36505;52.512;13.460;2023-11-21T10:51:22;3.35;;;2.40;;
50549;SDS011;36505;52.512;13.460;2023-11-21T10:53:49;4.35;;;2.38;;
50549;SDS011;36505;52.512;13.460;2023-11-21T10:56:16;3.55;;;2.08;;
50549;SDS011;36505;52.512;13.460;2023-11-21T10:58:46;4.25;;;2.28;;
50549;SDS011;36505;52.512;13.460;2023-11-21T11:01:14;4.28;;;2.40;;
50549;SDS011;36505;52.512;13.460;2023-11-21T11:03:42;3.88;;;2.30;;
50549;SDS011;36505;52.512;13.460;2023-11-21T11:06:09;5.22;;;2.70;;
50549;SDS011;36505;52.512;13.460;2023-11-21T11:08:39;4.30;;;2.38;;
50549;SDS011;36505;52.512;13.460;2023-11-21T11:11:05;3.33;;;2.20;;
50549;SDS011;36505;52.512;13.460;2023-11-21T11:13:31;7.28;;;3.17;;
50549;SDS011;36505;52.512;13.460;2023-11-21T11:16:00;4.82;;;2.30;;
50549;SDS011;36505;52.512;13.460;2023-11-21T11:18:29;2.90;;;1.90;;
50549;SDS011;36505;52.512;13.460;2023-11-21T11:21:07;5.32;;;3.05;;
50549;SDS011;36505;52.512;13.460;2023-11-21T11:29:36;6.85;;;3.92;;
50549;SDS011;36505;52.512;13.460;2023-11-21T11:34:51;8.07;;;4.32;;
50549;SDS011;36505;52.512;13.460;2023-11-21T11:37:24;6.68;;;3.33;;
50549;SDS011;36505;52.512;13.460;2023-11-21T11:39:49;6.32;;;3.58;;
50549;SDS011;36505;52.512;13.460;2023-11-21T11:42:18;6.72;;;3.33;;
50549;SDS011;36505;52.512;13.460;2023-11-21T11:49:57;5.97;;;2.85;;
50549;SDS011;36505;52.512;13.460;2023-11-21T11:52:39;5.90;;;3.10;;
50549;SDS011;36505;52.512;13.460;2023-11-21T11:55:07;7.18;;;2.60;;
50549;SDS011;36505;52.512;13.460;2023-11-21T11:57:37;4.25;;;3.13;;
50549;SDS011;36505;52.512;13.460;2023-11-21T12:03:02;4.70;;;2.88;;
50549;SDS011;36505;52.512;13.460;2023-11-21T12:05:31;3.45;;;2.30;;
50549;SDS011;36505;52.512;13.460;2023-11-21T12:07:59;4.45;;;3.10;;
50549;SDS011;36505;52.512;13.460;2023-11-21T12:10:29;5.63;;;2.63;;
50549;SDS011;36505;52.512;13.460;2023-11-21T12:13:00;3.88;;;2.35;;
50549;SDS011;36505;52.512;13.460;2023-11-21T12:15:26;3.72;;;2.67;;
50549;SDS011;36505;52.512;13.460;2023-11-21T12:17:55;4.70;;;3.20;;
50549;SDS011;36505;52.512;13.460;2023-11-21T12:20:24;5.20;;;2.88;;
50549;SDS011;36505;52.512;13.460;2023-11-21T12:22:51;4.93;;;2.60;;
50549;SDS011;36505;52.512;13.460;2023-11-21T12:25:26;3.28;;;2.38;;
50549;SDS011;36505;52.512;13.460;2023-11-21T12:28:00;4.57;;;2.55;;
50549;SDS011;36505;52.512;13.460;2023-11-21T12:30:29;4.25;;;2.92;;
50549;SDS011;36505;52.512;13.460;2023-11-21T12:32:58;3.08;;;2.33;;
50549;SDS011;36505;52.512;13.460;2023-11-21T12:35:26;6.35;;;2.33;;
50549;SDS011;36505;52.512;13.460;2023-11-21T12:37:52;4.50;;;2.63;;
50549;SDS011;36505;52.512;13.460;2023-11-21T12:40:19;7.40;;;2.17;;
50549;SDS011;36505;52.512;13.460;2023-11-21T12:42:48;2.83;;;1.90;;
50549;SDS011;36505;52.512;13.460;2023-11-21T12:45:21;3.03;;;1.70;;
50549;SDS011;36505;52.512;13.460;2023-11-21T12:47:50;3.30;;;2.03;;
50549;SDS011;36505;52.512;13.460;2023-11-21T12:50:20;5.10;;;2.17;;
50549;SDS011;36505;52.512;13.460;2023-11-21T12:52:49;3.85;;;2.50;;
50549;SDS011;36505;52.512;13.460;2023-11-21T12:55:16;4.38;;;2.20;;
50549;SDS011;36505;52.512;13.460;2023-11-21T12:57:47;3.35;;;2.33;;
50549;SDS011;36505;52.512;13.460;2023-11-21T13:00:17;3.97;;;2.30;;
50549;SDS011;36505;52.512;13.460;2023-11-21T13:02:55;4.15;;;2.90;;
50549;SDS011;36505;52.512;13.460;2023-11-21T13:05:27;5.07;;;2.40;;
50549;SDS011;36505;52.512;13.460;2023-11-21T13:07:54;5.32;;;2.17;;
50549;SDS011;36505;52.512;13.460;2023-11-21T13:10:23;4.75;;;2.22;;
50549;SDS011;36505;52.512;13.460;2023-11-21T13:12:59;3.80;;;2.42;;
50549;SDS011;36505;52.512;13.460;2023-11-21T13:15:26;5.72;;;2.63;;
50549;SDS011;36505;52.512;13.460;2023-11-21T13:17:52;4.35;;;2.22;;
50549;SDS011;36505;52.512;13.460;2023-11-21T13:20:22;6.25;;;3.40;;
50549;SDS011;36505;52.512;13.460;2023-11-21T13:22:50;5.00;;;2.85;;
50549;SDS011;36505;52.512;13.460;2023-11-21T13:25:19;7.22;;;3.17;;
50549;SDS011;36505;52.512;13.460;2023-11-21T13:27:44;8.68;;;3.63;;
50549;SDS011;36505;52.512;13.460;2023-11-21T13:30:11;4.78;;;3.15;;
50549;SDS011;36505;52.512;13.460;2023-11-21T13:32:41;5.72;;;2.78;;
50549;SDS011;36505;52.512;13.460;2023-11-21T13:35:07;9.65;;;3.28;;
50549;SDS011;36505;52.512;13.460;2023-11-21T13:37:38;7.20;;;4.13;;
50549;SDS011;36505;52.512;13.460;2023-11-21T13:40:04;6.75;;;3.00;;
50549;SDS011;36505;52.512;13.460;2023-11-21T13:42:39;7.13;;;3.72;;
50549;SDS011;36505;52.512;13.460;2023-11-21T13:45:06;8.82;;;4.43;;
50549;SDS011;36505;52.512;13.460;2023-11-21T13:47:31;10.70;;;4.82;;
50549;SDS011;36505;52.512;13.460;2023-11-21T13:49:59;8.00;;;4.15;;
50549;SDS011;36505;52.512;13.460;2023-11-21T13:52:25;8.48;;;4.63;;
50549;SDS011;36505;52.512;13.460;2023-11-21T13:54:53;11.38;;;4.63;;
50549;SDS011;36505;52.512;13.460;2023-11-21T13:57:18;9.48;;;4.43;;
50549;SDS011;36505;52.512;13.460;2023-11-21T13:59:45;8.48;;;4.43;;
50549;SDS011;36505;52.512;13.460;2023-11-21T14:02:11;6.95;;;3.85;;
50549;SDS011;36505;52.512;13.460;2023-11-21T14:04:43;6.72;;;3.55;;
50549;SDS011;36505;52.512;13.460;2023-11-21T14:07:19;11.07;;;3.97;;
50549;SDS011;36505;52.512;13.460;2023-11-21T14:09:51;9.45;;;4.20;;
50549;SDS011;36505;52.512;13.460;2023-11-21T14:12:18;8.98;;;4.40;;
50549;SDS011;36505;52.512;13.460;2023-11-21T14:14:43;8.48;;;4.72;;
50549;SDS011;36505;52.512;13.460;2023-11-21T14:17:12;10.20;;;5.55;;
50549;SDS011;36505;52.512;13.460;2023-11-21T14:19:38;9.95;;;5.90;;
50549;SDS011;36505;52.512;13.460;2023-11-21T14:22:08;13.35;;;8.30;;
50549;SDS011;36505;52.512;13.460;2023-11-21T14:24:34;9.40;;;6.07;;
50549;SDS011;36505;52.512;13.460;2023-11-21T14:27:00;11.95;;;7.45;;
50549;SDS011;36505;52.512;13.460;2023-11-21T14:29:25;12.00;;;7.60;;
50549;SDS011;36505;52.512;13.460;2023-11-21T14:31:52;12.85;;;7.60;;
50549;SDS011;36505;52.512;13.460;2023-11-21T14:34:21;12.98;;;8.13;;
50549;SDS011;36505;52.512;13.460;2023-11-21T14:36:47;16.15;;;8.88;;
50549;SDS011;36505;52.512;13.460;2023-11-21T14:39:14;16.40;;;8.57;;
50549;SDS011;36505;52.512;13.460;2023-11-21T14:41:51;16.52;;;9.30;;